sensor_id;sensor_type;location;lat;lon;timestamp;pressure;altitude;pressure_sealevel;temperature;humidity
17260;BME280;8746;49.230;9.220;2023-02-16T00:00:43;101099.97;;;-1.87;100.00
17260;BME280;8746;49.230;9.220;2023-02-16T00:03:16;101102.34;;;-1.95;100.00
17260;BME280;8746;49.230;9.220;2023-02-16T00:05:42;101091.13;;;-1.96;100.00
17260;BME280;8746;49.230;9.220;2023-02-16T00:08:07;101098.09;;;-1.93;100.00
17260;BME280;8746;49.230;9.220;2023-02-16T00:10:34;101096.19;;;-1.99;100.00
17260;BME280;8746;49.230;9.220;2023-02-16T00:13:04;101085.69;;;-2.03;100.00
17260;BME280;8746;49.230;9.220;2023-02-16T00:15:58;101092.47;;;-2.08;100.00
17260;BME280;8746;49.230;9.220;2023-02-16T00:18:24;101093.63;;;-1.97;100.00
17260;BME280;8746;49.230;9.220;2023-02-16T00:20:49;101086.53;;;-2.04;100.00
17260;BME280;8746;49.230;9.220;2023-02-16T00:23:15;101097.00;;;-2.00;100.00
17260;BME280;8746;49.230;9.220;2023-02-16T00:25:40;101101.47;;;-1.96;100.00
17260;BME280;8746;49.230;9.220;2023-02-16T00:28:15;101100.69;;;-1.93;100.00
17260;BME280;8746;49.230;9.220;2023-02-16T00:30:42;101097.94;;;-1.98;100.00
17260;BME280;8746;49.230;9.220;2023-02-16T00:33:13;101101.41;;;-1.97;100.00
17260;BME280;8746;49.230;9.220;2023-02-16T00:35:39;101102.28;;;-1.97;100.00
17260;BME280;8746;49.230;9.220;2023-02-16T00:38:05;101109.94;;;-2.00;100.00
17260;BME280;8746;49.230;9.220;2023-02-16T00:40:30;101102.94;;;-2.04;100.00
17260;BME280;8746;49.230;9.220;2023-02-16T00:42:56;101098.63;;;-2.03;100.00
17260;BME280;8746;49.230;9.220;2023-02-16T00:45:22;101094.84;;;-2.15;100.00
17260;BME280;8746;49.230;9.220;2023-02-16T00:47:50;101085.53;;;-2.10;100.00
17260;BME280;8746;49.230;9.220;2023-02-16T00:50:23;101090.44;;;-2.19;100.00
17260;BME280;8746;49.230;9.220;2023-02-16T00:52:50;101089.47;;;-2.22;100.00
17260;BME280;8746;49.230;9.220;2023-02-16T00:55:18;101083.59;;;-2.17;100.00
17260;BME280;8746;49.230;9.220;2023-02-16T00:57:50;101081.81;;;-2.18;100.00
17260;BME280;8746;49.230;9.220;2023-02-16T01:00:29;101079.06;;;-2.24;100.00
17260;BME280;8746;49.230;9.220;2023-02-16T01:02:58;101082.38;;;-2.28;100.00
17260;BME280;8746;49.230;9.220;2023-02-16T01:05:24;101088.31;;;-2.32;100.00
17260;BME280;8746;49.230;9.220;2023-02-16T01:07:50;101084.78;;;-2.34;100.00
17260;BME280;8746;49.230;9.220;2023-02-16T01:10:37;101075.00;;;-2.45;100.00
17260;BME280;8746;49.230;9.220;2023-02-16T01:13:22;101081.72;;;-2.50;100.00
17260;BME280;8746;49.230;9.220;2023-02-16T01:15:48;101069.34;;;-2.60;100.00
17260;BME280;8746;49.230;9.220;2023-02-16T01:18:15;101075.53;;;-2.55;100.00
17260;BME280;8746;49.230;9.220;2023-02-16T01:20:41;101081.72;;;-2.50;100.00
17260;BME280;8746;49.230;9.220;2023-02-16T01:23:06;101096.25;;;-2.53;100.00
17260;BME280;8746;49.230;9.220;2023-02-16T01:25:32;101094.03;;;-2.41;100.00
17260;BME280;8746;49.230;9.220;2023-02-16T01:27:58;101090.97;;;-2.29;100.00
17260;BME280;8746;49.230;9.220;2023-02-16T01:30:24;101091.97;;;-2.24;100.00
17260;BME280;8746;49.230;9.220;2023-02-16T01:32:50;101086.50;;;-2.35;100.00
17260;BME280;8746;49.230;9.220;2023-02-16T01:35:18;101088.22;;;-2.34;100.00
17260;BME280;8746;49.230;9.220;2023-02-16T01:37:44;101089.66;;;-2.44;100.00
17260;BME280;8746;49.230;9.220;2023-02-16T01:40:22;101090.97;;;-2.58;100.00
17260;BME280;8746;49.230;9.220;2023-02-16T01:42:57;101082.47;;;-2.54;100.00
17260;BME280;8746;49.230;9.220;2023-02-16T01:45:32;101071.25;;;-2.54;100.00
17260;BME280;8746;49.230;9.220;2023-02-16T01:48:04;101078.13;;;-2.55;100.00
17260;BME280;8746;49.230;9.220;2023-02-16T01:53:18;101081.47;;;-2.58;100.00
17260;BME280;8746;49.230;9.220;2023-02-16T01:55:47;101077.13;;;-2.59;100.00
17260;BME280;8746;49.230;9.220;2023-02-16T01:58:47;101082.06;;;-2.66;100.00
17260;BME280;8746;49.230;9.220;2023-02-16T02:01:42;101073.59;;;-2.62;100.00
17260;BME280;8746;49.230;9.220;2023-02-16T02:07:43;101069.19;;;-2.65;100.00
17260;BME280;8746;49.230;9.220;2023-02-16T02:12:55;101065.84;;;-2.62;100.00
17260;BME280;8746;49.230;9.220;2023-02-16T02:15:27;101063.88;;;-2.69;100.00
17260;BME280;8746;49.230;9.220;2023-02-16T02:17:53;101066.31;;;-2.74;100.00
17260;BME280;8746;49.230;9.220;2023-02-16T02:32:09;101055.75;;;-2.82;100.00
17260;BME280;8746;49.230;9.220;2023-02-16T02:35:54;101056.50;;;-2.57;100.00
17260;BME280;8746;49.230;9.220;2023-02-16T02:46:18;101050.81;;;-2.74;100.00
17260;BME280;8746;49.230;9.220;2023-02-16T02:48:45;101054.25;;;-2.75;100.00
17260;BME280;8746;49.230;9.220;2023-02-16T02:51:12;101050.56;;;-2.82;100.00
17260;BME280;8746;49.230;9.220;2023-02-16T02:54:13;101049.63;;;-2.84;100.00
17260;BME280;8746;49.230;9.220;2023-02-16T03:00:13;101059.31;;;-2.78;100.00
17260;BME280;8746;49.230;9.220;2023-02-16T03:03:06;101053.75;;;-2.91;100.00
17260;BME280;8746;49.230;9.220;2023-02-16T03:05:34;101049.44;;;-2.90;100.00
17260;BME280;8746;49.230;9.220;2023-02-16T03:08:07;101050.38;;;-2.88;100.00
17260;BME280;8746;49.230;9.220;2023-02-16T03:13:56;101057.16;;;-2.92;100.00
17260;BME280;8746;49.230;9.220;2023-02-16T03:16:26;101051.19;;;-2.89;100.00
17260;BME280;8746;49.230;9.220;2023-02-16T03:18:54;101045.66;;;-2.74;100.00
17260;BME280;8746;49.230;9.220;2023-02-16T03:21:39;101057.09;;;-2.66;100.00
17260;BME280;8746;49.230;9.220;2023-02-16T03:24:27;101044.97;;;-2.68;100.00
17260;BME280;8746;49.230;9.220;2023-02-16T03:27:26;101043.03;;;-2.76;100.00
17260;BME280;8746;49.230;9.220;2023-02-16T03:30:13;101041.06;;;-2.83;100.00
17260;BME280;8746;49.230;9.220;2023-02-16T03:32:40;101052.50;;;-2.76;100.00
17260;BME280;8746;49.230;9.220;2023-02-16T03:35:05;101059.25;;;-2.80;100.00
17260;BME280;8746;49.230;9.220;2023-02-16T03:37:32;101059.88;;;-2.87;100.00
17260;BME280;8746;49.230;9.220;2023-02-16T03:39:58;101053.63;;;-2.94;100.00
17260;BME280;8746;49.230;9.220;2023-02-16T03:42:51;101050.03;;;-2.99;100.00
17260;BME280;8746;49.230;9.220;2023-02-16T03:45:18;101053.53;;;-2.97;100.00
17260;BME280;8746;49.230;9.220;2023-02-16T03:47:44;101058.59;;;-3.00;100.00
17260;BME280;8746;49.230;9.220;2023-02-16T03:50:10;101060.34;;;-2.99;100.00
17260;BME280;8746;49.230;9.220;2023-02-16T03:52:35;101056.16;;;-2.95;100.00
17260;BME280;8746;49.230;9.220;2023-02-16T03:55:01;101058.50;;;-3.03;100.00
17260;BME280;8746;49.230;9.220;2023-02-16T03:57:26;101061.94;;;-3.02;100.00
17260;BME280;8746;49.230;9.220;2023-02-16T03:59:52;101060.50;;;-2.94;100.00
17260;BME280;8746;49.230;9.220;2023-02-16T04:02:18;101064.69;;;-2.98;100.00
17260;BME280;8746;49.230;9.220;2023-02-16T04:04:43;101066.41;;;-2.98;100.00
17260;BME280;8746;49.230;9.220;2023-02-16T04:07:09;101065.47;;;-3.00;100.00
17260;BME280;8746;49.230;9.220;2023-02-16T04:09:34;101060.31;;;-3.00;100.00
17260;BME280;8746;49.230;9.220;2023-02-16T04:11:59;101067.31;;;-2.96;100.00
17260;BME280;8746;49.230;9.220;2023-02-16T04:14:46;101060.28;;;-3.02;100.00
17260;BME280;8746;49.230;9.220;2023-02-16T04:17:12;101066.28;;;-3.01;100.00
17260;BME280;8746;49.230;9.220;2023-02-16T04:19:37;101068.72;;;-3.06;100.00
17260;BME280;8746;49.230;9.220;2023-02-16T04:22:03;101069.63;;;-3.06;100.00
17260;BME280;8746;49.230;9.220;2023-02-16T04:24:28;101066.66;;;-3.16;100.00
17260;BME280;8746;49.230;9.220;2023-02-16T04:26:54;101079.03;;;-3.06;100.00
17260;BME280;8746;49.230;9.220;2023-02-16T04:29:19;101066.41;;;-2.98;100.00
17260;BME280;8746;49.230;9.220;2023-02-16T04:31:44;101070.53;;;-3.03;100.00
17260;BME280;8746;49.230;9.220;2023-02-16T04:34:10;101082.00;;;-2.95;100.00
17260;BME280;8746;49.230;9.220;2023-02-16T04:36:35;101080.97;;;-3.00;100.00
17260;BME280;8746;49.230;9.220;2023-02-16T04:39:01;101083.38;;;-3.05;100.00
17260;BME280;8746;49.230;9.220;2023-02-16T04:41:26;101077.78;;;-3.19;100.00
17260;BME280;8746;49.230;9.220;2023-02-16T04:43:52;101076.00;;;-3.20;100.00
17260;BME280;8746;49.230;9.220;2023-02-16T04:46:17;101081.94;;;-3.23;100.00
17260;BME280;8746;49.230;9.220;2023-02-16T04:48:43;101078.25;;;-3.29;100.00
17260;BME280;8746;49.230;9.220;2023-02-16T04:51:09;101074.81;;;-3.30;100.00
17260;BME280;8746;49.230;9.220;2023-02-16T04:53:34;101077.13;;;-3.38;100.00
17260;BME280;8746;49.230;9.220;2023-02-16T04:55:59;101076.28;;;-3.36;100.00
17260;BME280;8746;49.230;9.220;2023-02-16T04:58:25;101084.03;;;-3.36;100.00
17260;BME280;8746;49.230;9.220;2023-02-16T05:00:50;101084.47;;;-3.24;100.00
17260;BME280;8746;49.230;9.220;2023-02-16T05:03:16;101080.91;;;-3.28;100.00
17260;BME280;8746;49.230;9.220;2023-02-16T05:05:41;101082.50;;;-3.31;100.00
17260;BME280;8746;49.230;9.220;2023-02-16T05:08:06;101078.63;;;-3.18;100.00
17260;BME280;8746;49.230;9.220;2023-02-16T05:10:32;101073.63;;;-3.14;100.00
17260;BME280;8746;49.230;9.220;2023-02-16T05:12:57;101079.56;;;-3.16;100.00
17260;BME280;8746;49.230;9.220;2023-02-16T05:15:41;101079.13;;;-3.30;100.00
17260;BME280;8746;49.230;9.220;2023-02-16T05:18:07;101071.13;;;-3.36;100.00
17260;BME280;8746;49.230;9.220;2023-02-16T05:20:32;101076.94;;;-3.44;100.00
17260;BME280;8746;49.230;9.220;2023-02-16T05:23:18;101075.16;;;-3.45;100.00
17260;BME280;8746;49.230;9.220;2023-02-16T05:25:43;101061.19;;;-3.50;100.00
17260;BME280;8746;49.230;9.220;2023-02-16T05:28:09;101071.66;;;-3.47;100.00
17260;BME280;8746;49.230;9.220;2023-02-16T05:30:34;101074.09;;;-3.50;100.00
17260;BME280;8746;49.230;9.220;2023-02-16T05:33:00;101075.09;;;-3.46;100.00
17260;BME280;8746;49.230;9.220;2023-02-16T05:35:26;101071.31;;;-3.56;100.00
17260;BME280;8746;49.230;9.220;2023-02-16T05:37:52;101067.91;;;-3.55;100.00
17260;BME280;8746;49.230;9.220;2023-02-16T05:40:17;101074.75;;;-3.57;100.00
17260;BME280;8746;49.230;9.220;2023-02-16T05:42:42;101073.75;;;-3.61;100.00
17260;BME280;8746;49.230;9.220;2023-02-16T05:45:08;101080.53;;;-3.63;100.00
17260;BME280;8746;49.230;9.220;2023-02-16T05:47:34;101093.72;;;-3.55;100.00
17260;BME280;8746;49.230;9.220;2023-02-16T05:49:59;101099.91;;;-3.50;100.00
17260;BME280;8746;49.230;9.220;2023-02-16T05:52:24;101098.31;;;-3.46;100.00
17260;BME280;8746;49.230;9.220;2023-02-16T05:54:50;101093.22;;;-3.45;100.00
17260;BME280;8746;49.230;9.220;2023-02-16T05:57:15;101099.84;;;-3.51;100.00
17260;BME280;8746;49.230;9.220;2023-02-16T05:59:40;101100.28;;;-3.39;100.00
17260;BME280;8746;49.230;9.220;2023-02-16T06:02:06;101108.19;;;-3.34;100.00
17260;BME280;8746;49.230;9.220;2023-02-16T06:04:34;101110.81;;;-3.33;100.00
17260;BME280;8746;49.230;9.220;2023-02-16T06:06:59;101116.06;;;-3.31;100.00
17260;BME280;8746;49.230;9.220;2023-02-16T06:09:25;101113.25;;;-3.38;100.00
17260;BME280;8746;49.230;9.220;2023-02-16T06:11:50;101111.06;;;-3.51;100.00
17260;BME280;8746;49.230;9.220;2023-02-16T06:14:18;101107.19;;;-3.62;100.00
17260;BME280;8746;49.230;9.220;2023-02-16T06:16:46;101111.38;;;-3.66;100.00
17260;BME280;8746;49.230;9.220;2023-02-16T06:19:12;101111.81;;;-3.78;100.00
17260;BME280;8746;49.230;9.220;2023-02-16T06:21:38;101107.56;;;-3.76;100.00
17260;BME280;8746;49.230;9.220;2023-02-16T06:24:05;101120.47;;;-3.76;100.00
17260;BME280;8746;49.230;9.220;2023-02-16T06:26:31;101120.47;;;-3.76;100.00
17260;BME280;8746;49.230;9.220;2023-02-16T06:28:56;101112.22;;;-3.90;100.00
17260;BME280;8746;49.230;9.220;2023-02-16T06:31:22;101113.09;;;-3.89;100.00
17260;BME280;8746;49.230;9.220;2023-02-16T06:33:49;101107.72;;;-3.95;100.00
17260;BME280;8746;49.230;9.220;2023-02-16T06:36:15;101114.63;;;-3.94;100.00
17260;BME280;8746;49.230;9.220;2023-02-16T06:38:42;101114.63;;;-3.94;100.00
17260;BME280;8746;49.230;9.220;2023-02-16T06:41:08;101113.88;;;-3.92;100.00
17260;BME280;8746;49.230;9.220;2023-02-16T06:43:33;101115.81;;;-3.86;100.00
17260;BME280;8746;49.230;9.220;2023-02-16T06:45:59;101119.78;;;-3.94;100.00
17260;BME280;8746;49.230;9.220;2023-02-16T06:48:24;101113.03;;;-3.91;100.00
17260;BME280;8746;49.230;9.220;2023-02-16T06:50:50;101111.22;;;-3.93;100.00
17260;BME280;8746;49.230;9.220;2023-02-16T06:53:15;101117.50;;;-3.87;100.00
17260;BME280;8746;49.230;9.220;2023-02-16T06:55:40;101118.75;;;-3.77;100.00
17260;BME280;8746;49.230;9.220;2023-02-16T06:58:06;101126.47;;;-3.77;100.00
17260;BME280;8746;49.230;9.220;2023-02-16T07:00:32;101130.91;;;-3.73;100.00
17260;BME280;8746;49.230;9.220;2023-02-16T07:02:59;101125.97;;;-3.66;100.00
17260;BME280;8746;49.230;9.220;2023-02-16T07:05:25;101124.38;;;-3.63;100.00
17260;BME280;8746;49.230;9.220;2023-02-16T07:07:53;101122.34;;;-3.72;100.00
17260;BME280;8746;49.230;9.220;2023-02-16T07:10:18;101129.72;;;-3.58;100.00
17260;BME280;8746;49.230;9.220;2023-02-16T07:12:44;101123.38;;;-3.44;100.00
17260;BME280;8746;49.230;9.220;2023-02-16T07:15:10;101123.84;;;-3.54;100.00
17260;BME280;8746;49.230;9.220;2023-02-16T07:17:36;101131.72;;;-3.51;100.00
17260;BME280;8746;49.230;9.220;2023-02-16T07:20:02;101130.25;;;-3.43;100.00
17260;BME280;8746;49.230;9.220;2023-02-16T07:22:29;101131.75;;;-3.25;100.00
17260;BME280;8746;49.230;9.220;2023-02-16T07:24:55;101129.38;;;-3.19;100.00
17260;BME280;8746;49.230;9.220;2023-02-16T07:27:22;101128.56;;;-3.18;100.00
17260;BME280;8746;49.230;9.220;2023-02-16T07:29:47;101133.00;;;-3.14;100.00
17260;BME280;8746;49.230;9.220;2023-02-16T07:32:12;101128.91;;;-3.07;100.00
17260;BME280;8746;49.230;9.220;2023-02-16T07:34:38;101136.94;;;-2.99;100.00
17260;BME280;8746;49.230;9.220;2023-02-16T07:37:04;101141.69;;;-2.86;100.00
17260;BME280;8746;49.230;9.220;2023-02-16T07:39:29;101146.53;;;-2.69;100.00
17260;BME280;8746;49.230;9.220;2023-02-16T07:41:55;101148.34;;;-2.67;100.00
17260;BME280;8746;49.230;9.220;2023-02-16T07:44:20;101147.59;;;-2.64;100.00
17260;BME280;8746;49.230;9.220;2023-02-16T07:46:45;101146.94;;;-2.57;100.00
17260;BME280;8746;49.230;9.220;2023-02-16T07:49:11;101140.94;;;-2.56;100.00
17260;BME280;8746;49.230;9.220;2023-02-16T07:51:36;101140.13;;;-2.55;100.00
17260;BME280;8746;49.230;9.220;2023-02-16T07:54:01;101151.56;;;-2.48;100.00
17260;BME280;8746;49.230;9.220;2023-02-16T07:56:29;101153.00;;;-2.29;100.00
17260;BME280;8746;49.230;9.220;2023-02-16T07:58:57;101151.16;;;-2.33;100.00
17260;BME280;8746;49.230;9.220;2023-02-16T08:01:23;101155.78;;;-2.23;100.00
17260;BME280;8746;49.230;9.220;2023-02-16T08:03:49;101148.13;;;-2.20;100.00
17260;BME280;8746;49.230;9.220;2023-02-16T08:06:15;101142.16;;;-2.19;100.00
17260;BME280;8746;49.230;9.220;2023-02-16T08:08:40;101149.25;;;-2.12;100.00
17260;BME280;8746;49.230;9.220;2023-02-16T08:11:10;101148.41;;;-2.11;100.00
17260;BME280;8746;49.230;9.220;2023-02-16T08:13:36;101137.81;;;-2.20;100.00
17260;BME280;8746;49.230;9.220;2023-02-16T08:16:07;101142.44;;;-2.08;100.00
17260;BME280;8746;49.230;9.220;2023-02-16T08:18:33;101144.66;;;-1.93;100.00
17260;BME280;8746;49.230;9.220;2023-02-16T08:21:12;101134.53;;;-1.85;100.00
17260;BME280;8746;49.230;9.220;2023-02-16T08:24:00;101142.59;;;-1.74;100.00
17260;BME280;8746;49.230;9.220;2023-02-16T08:26:31;101139.97;;;-1.76;100.00
17260;BME280;8746;49.230;9.220;2023-02-16T08:28:57;101143.59;;;-1.69;100.00
17260;BME280;8746;49.230;9.220;2023-02-16T08:31:25;101146.38;;;-1.63;100.00
17260;BME280;8746;49.230;9.220;2023-02-16T08:33:53;101142.63;;;-1.44;100.00
17260;BME280;8746;49.230;9.220;2023-02-16T08:36:21;101143.31;;;-1.50;100.00
17260;BME280;8746;49.230;9.220;2023-02-16T08:38:48;101131.47;;;-1.41;100.00
17260;BME280;8746;49.230;9.220;2023-02-16T08:41:18;101145.16;;;-1.46;100.00
17260;BME280;8746;49.230;9.220;2023-02-16T08:43:45;101137.13;;;-1.23;100.00
17260;BME280;8746;49.230;9.220;2023-02-16T08:46:11;101138.44;;;-1.07;100.00
17260;BME280;8746;49.230;9.220;2023-02-16T08:48:36;101140.03;;;-1.12;100.00
17260;BME280;8746;49.230;9.220;2023-02-16T08:51:04;101131.47;;;-1.09;100.00
17260;BME280;8746;49.230;9.220;2023-02-16T08:53:31;101137.91;;;-0.93;100.00
17260;BME280;8746;49.230;9.220;2023-02-16T08:55:59;101138.59;;;-1.01;100.00
17260;BME280;8746;49.230;9.220;2023-02-16T08:58:25;101140.09;;;-0.75;100.00
17260;BME280;8746;49.230;9.220;2023-02-16T09:00:51;101141.34;;;-0.61;100.00
17260;BME280;8746;49.230;9.220;2023-02-16T09:03:17;101138.00;;;-0.55;100.00
17260;BME280;8746;49.230;9.220;2023-02-16T09:05:47;101138.94;;;-0.52;100.00
17260;BME280;8746;49.230;9.220;2023-02-16T09:08:12;101136.56;;;-0.44;100.00
17260;BME280;8746;49.230;9.220;2023-02-16T09:10:41;101132.38;;;-0.37;100.00
17260;BME280;8746;49.230;9.220;2023-02-16T09:13:07;101127.75;;;-0.14;100.00
17260;BME280;8746;49.230;9.220;2023-02-16T09:15:39;101131.41;;;-0.04;100.00
17260;BME280;8746;49.230;9.220;2023-02-16T09:18:06;101126.63;;;0.14;100.00
17260;BME280;8746;49.230;9.220;2023-02-16T09:20:36;101130.38;;;0.27;100.00
17260;BME280;8746;49.230;9.220;2023-02-16T09:23:03;101130.03;;;0.53;99.97
17260;BME280;8746;49.230;9.220;2023-02-16T09:25:29;101125.38;;;0.81;98.62
17260;BME280;8746;49.230;9.220;2023-02-16T09:27:54;101127.41;;;0.98;98.54
17260;BME280;8746;49.230;9.220;2023-02-16T09:30:20;101126.31;;;0.86;99.51
17260;BME280;8746;49.230;9.220;2023-02-16T09:32:45;101130.81;;;0.95;98.50
17260;BME280;8746;49.230;9.220;2023-02-16T09:35:11;101123.03;;;0.95;99.24
17260;BME280;8746;49.230;9.220;2023-02-16T09:37:36;101117.09;;;1.04;98.46
17260;BME280;8746;49.230;9.220;2023-02-16T09:40:02;101124.47;;;1.30;98.97
17260;BME280;8746;49.230;9.220;2023-02-16T09:45:15;101117.28;;;1.65;96.84
17260;BME280;8746;49.230;9.220;2023-02-16T09:47:44;101127.78;;;1.74;96.09
17260;BME280;8746;49.230;9.220;2023-02-16T09:50:22;101124.50;;;1.85;94.30
17260;BME280;8746;49.230;9.220;2023-02-16T09:53:03;101112.56;;;2.01;93.22
17260;BME280;8746;49.230;9.220;2023-02-16T09:55:56;101116.41;;;2.28;93.42
17260;BME280;8746;49.230;9.220;2023-02-16T09:58:35;101112.41;;;2.56;92.25
17260;BME280;8746;49.230;9.220;2023-02-16T10:01:13;101111.03;;;2.91;90.62
17260;BME280;8746;49.230;9.220;2023-02-16T10:09:10;101113.38;;;3.60;85.82
17260;BME280;8746;49.230;9.220;2023-02-16T10:11:41;101107.66;;;4.26;85.06
17260;BME280;8746;49.230;9.220;2023-02-16T10:14:42;101107.81;;;4.75;82.43
17260;BME280;8746;49.230;9.220;2023-02-16T10:17:27;101102.66;;;5.26;81.13
17260;BME280;8746;49.230;9.220;2023-02-16T10:20:01;101099.06;;;5.96;77.04
17260;BME280;8746;49.230;9.220;2023-02-16T10:22:47;101092.97;;;5.92;74.17
17260;BME280;8746;49.230;9.220;2023-02-16T10:28:15;101099.47;;;7.08;71.25
17260;BME280;8746;49.230;9.220;2023-02-16T10:30:52;101086.72;;;7.65;69.77
17260;BME280;8746;49.230;9.220;2023-02-16T10:35:57;101087.16;;;7.13;68.92
17260;BME280;8746;49.230;9.220;2023-02-16T10:44:18;101071.34;;;8.79;65.22
17260;BME280;8746;49.230;9.220;2023-02-16T10:46:53;101066.09;;;8.78;63.58
17260;BME280;8746;49.230;9.220;2023-02-16T10:49:20;101060.06;;;8.71;63.51
17260;BME280;8746;49.230;9.220;2023-02-16T10:51:48;101054.28;;;9.05;66.53
17260;BME280;8746;49.230;9.220;2023-02-16T10:54:30;101064.53;;;8.64;66.00
17260;BME280;8746;49.230;9.220;2023-02-16T10:57:00;101052.97;;;9.33;64.70
17260;BME280;8746;49.230;9.220;2023-02-16T10:59:38;101054.41;;;9.49;64.76
17260;BME280;8746;49.230;9.220;2023-02-16T11:02:27;101048.78;;;9.69;62.46
17260;BME280;8746;49.230;9.220;2023-02-16T11:04:57;101054.03;;;10.58;60.52
17260;BME280;8746;49.230;9.220;2023-02-16T11:07:29;101051.56;;;10.88;59.05
17260;BME280;8746;49.230;9.220;2023-02-16T11:09:58;101046.94;;;10.61;58.99
17260;BME280;8746;49.230;9.220;2023-02-16T11:12:31;101054.69;;;10.68;59.87
17260;BME280;8746;49.230;9.220;2023-02-16T11:15:19;101050.88;;;10.82;58.35
17260;BME280;8746;49.230;9.220;2023-02-16T11:23:12;101030.59;;;11.53;57.15
17260;BME280;8746;49.230;9.220;2023-02-16T11:25:39;101036.31;;;10.64;58.99
17260;BME280;8746;49.230;9.220;2023-02-16T11:28:04;101033.88;;;10.54;59.26
17260;BME280;8746;49.230;9.220;2023-02-16T11:30:38;101030.25;;;10.60;58.39
17260;BME280;8746;49.230;9.220;2023-02-16T11:33:21;101028.31;;;9.82;59.44
17260;BME280;8746;49.230;9.220;2023-02-16T11:35:48;101024.63;;;9.45;61.20
17260;BME280;8746;49.230;9.220;2023-02-16T11:38:35;101019.03;;;9.16;61.97
17260;BME280;8746;49.230;9.220;2023-02-16T11:41:03;101013.69;;;9.20;61.65
17260;BME280;8746;49.230;9.220;2023-02-16T11:43:34;101017.47;;;9.54;61.02
17260;BME280;8746;49.230;9.220;2023-02-16T11:46:13;101010.59;;;9.45;61.35
17260;BME280;8746;49.230;9.220;2023-02-16T11:48:41;101002.00;;;9.35;62.02
17260;BME280;8746;49.230;9.220;2023-02-16T11:51:08;100994.47;;;9.13;61.41
17260;BME280;8746;49.230;9.220;2023-02-16T11:53:37;100990.03;;;9.17;62.72
17260;BME280;8746;49.230;9.220;2023-02-16T11:56:22;100988.16;;;9.24;63.73
17260;BME280;8746;49.230;9.220;2023-02-16T11:59:18;100985.38;;;9.32;61.37
17260;BME280;8746;49.230;9.220;2023-02-16T12:01:52;100977.94;;;9.54;62.17
17260;BME280;8746;49.230;9.220;2023-02-16T12:15:02;100965.50;;;9.13;63.66
17260;BME280;8746;49.230;9.220;2023-02-16T12:22:45;100948.06;;;9.55;64.09
17260;BME280;8746;49.230;9.220;2023-02-16T12:25:33;100938.16;;;9.68;62.80
17260;BME280;8746;49.230;9.220;2023-02-16T12:28:30;100935.38;;;9.75;63.76
17260;BME280;8746;49.230;9.220;2023-02-16T12:34:25;100938.84;;;9.77;63.06
17260;BME280;8746;49.230;9.220;2023-02-16T12:37:19;100929.97;;;9.82;62.14
17260;BME280;8746;49.230;9.220;2023-02-16T12:44:53;100926.31;;;9.45;63.88
17260;BME280;8746;49.230;9.220;2023-02-16T12:47:32;100925.56;;;9.38;64.22
17260;BME280;8746;49.230;9.220;2023-02-16T12:50:02;100923.59;;;9.50;64.55
17260;BME280;8746;49.230;9.220;2023-02-16T12:52:32;100917.19;;;9.63;63.68
17260;BME280;8746;49.230;9.220;2023-02-16T13:00:46;100907.09;;;9.82;63.57
17260;BME280;8746;49.230;9.220;2023-02-16T13:06:31;100904.41;;;9.85;63.76
17260;BME280;8746;49.230;9.220;2023-02-16T13:11:56;100885.63;;;9.99;63.23
17260;BME280;8746;49.230;9.220;2023-02-16T13:14:27;100883.16;;;9.93;64.17
17260;BME280;8746;49.230;9.220;2023-02-16T13:17:02;100883.69;;;10.07;63.23
17260;BME280;8746;49.230;9.220;2023-02-16T13:19:30;100881.75;;;10.16;62.31
17260;BME280;8746;49.230;9.220;2023-02-16T13:29:43;100875.19;;;10.32;62.11
17260;BME280;8746;49.230;9.220;2023-02-16T13:32:31;100874.59;;;10.21;61.87
17260;BME280;8746;49.230;9.220;2023-02-16T13:35:15;100875.19;;;10.32;62.33
17260;BME280;8746;49.230;9.220;2023-02-16T13:46:31;100867.59;;;10.57;61.99
17260;BME280;8746;49.230;9.220;2023-02-16T13:48:58;100857.88;;;10.58;61.65
17260;BME280;8746;49.230;9.220;2023-02-16T13:51:27;100861.41;;;10.58;61.96
17260;BME280;8746;49.230;9.220;2023-02-16T13:54:00;100867.72;;;10.86;60.57
17260;BME280;8746;49.230;9.220;2023-02-16T14:01:46;100848.84;;;11.01;61.84
17260;BME280;8746;49.230;9.220;2023-02-16T14:06:45;100848.44;;;11.15;61.52
17260;BME280;8746;49.230;9.220;2023-02-16T14:12:12;100845.44;;;11.29;61.24
17260;BME280;8746;49.230;9.220;2023-02-16T14:17:15;100841.84;;;11.30;61.92
17260;BME280;8746;49.230;9.220;2023-02-16T14:25:00;100835.13;;;11.50;59.20
17260;BME280;8746;49.230;9.220;2023-02-16T14:30:54;100834.84;;;11.89;55.93
17260;BME280;8746;49.230;9.220;2023-02-16T14:33:42;100824.94;;;11.67;55.56
17260;BME280;8746;49.230;9.220;2023-02-16T14:36:19;100822.34;;;11.66;55.58
17260;BME280;8746;49.230;9.220;2023-02-16T14:38:47;100825.00;;;11.64;55.52
17260;BME280;8746;49.230;9.220;2023-02-16T14:41:26;100830.28;;;11.64;55.54
17260;BME280;8746;49.230;9.220;2023-02-16T14:44:08;100828.47;;;11.66;55.46
17260;BME280;8746;49.230;9.220;2023-02-16T15:03:24;100823.72;;;12.08;54.06
17260;BME280;8746;49.230;9.220;2023-02-16T15:05:54;100824.88;;;11.99;54.59
17260;BME280;8746;49.230;9.220;2023-02-16T15:08:26;100812.63;;;11.95;54.07
17260;BME280;8746;49.230;9.220;2023-02-16T15:10:59;100817.63;;;11.76;54.30
17260;BME280;8746;49.230;9.220;2023-02-16T15:13:32;100818.75;;;11.68;55.31
17260;BME280;8746;49.230;9.220;2023-02-16T15:15:59;100820.69;;;11.62;55.17
17260;BME280;8746;49.230;9.220;2023-02-16T15:18:36;100815.34;;;11.63;55.22
17260;BME280;8746;49.230;9.220;2023-02-16T15:21:02;100818.09;;;11.60;55.11
17260;BME280;8746;49.230;9.220;2023-02-16T15:23:31;100816.75;;;11.47;55.99
17260;BME280;8746;49.230;9.220;2023-02-16T15:26:04;100813.31;;;11.43;55.59
17260;BME280;8746;49.230;9.220;2023-02-16T15:28:36;100816.31;;;11.31;56.55
17260;BME280;8746;49.230;9.220;2023-02-16T15:31:07;100812.25;;;11.19;56.54
17260;BME280;8746;49.230;9.220;2023-02-16T15:33:42;100811.47;;;11.15;57.09
17260;BME280;8746;49.230;9.220;2023-02-16T15:36:12;100802.22;;;11.00;57.74
17260;BME280;8746;49.230;9.220;2023-02-16T15:38:54;100806.94;;;10.89;57.95
17260;BME280;8746;49.230;9.220;2023-02-16T15:41:27;100803.41;;;10.90;58.37
17260;BME280;8746;49.230;9.220;2023-02-16T15:43:54;100800.19;;;10.79;58.75